Flight Track Log - Related Links

Times and Time Zones

All times are in EDT time to prevent confusion due to time zone crossing. See the EJA831 flight status page for this flight to view local times or setup timezone preferences in your user account.

Time Position Orientation Groundspeed Altitude Reporting Facility
EDT Latitude Longitude Course Direction KTS MPH feet Rate Location/Type
Sat 10:13:22 AM 43.5667 -71.4500 235° Southwest 270 311 1,900  Level KA90
Sat 10:14:16 AM 43.5333 -71.5167 235° Southwest 228 262 5,400 3,421 Climbing KA90
Sat 10:15:16 AM 43.4667 -71.5500 200° South 260 299 8,400 2,300 Climbing KA90
Sat 10:16:16 AM 43.3833 -71.5833 196° South 276 318 10,000 850 Climbing KA90
Sat 10:17:16 AM 43.3167 -71.6333 209° Southwest 320 368 10,100  Climbing KA90
Sat 10:18:37 AM 43.2003 -71.7081 205° Southwest 340 391 10,000 -43 Descending Boston Center
Sat 10:19:37 AM 43.1383 -71.7886 224° Southwest 312 359 10,000  Level Boston Center
Sat 10:20:49 AM 43.0825 -71.8658 225° Southwest 317 365 10,000  Level Boston Center
Sat 10:21:50 AM 42.9869 -71.9461 212° Southwest 317 365 10,000  Level Boston Center
Sat 10:22:49 AM 42.8997 -71.9667 190° South 316 364 10,000 50 Level Boston Center
Sat 10:23:49 AM 42.8164 -71.9900 192° South 321 369 10,100 50 Climbing Boston Center
Sat 10:24:49 AM 42.7247 -72.0133 191° South 321 369 10,100  Level Boston Center
Sat 10:25:49 AM 42.6539 -72.0308 190° South 321 369 10,100  Level Boston Center
Sat 10:26:31 AM 42.5706 -72.0567 193° South 328 377 10,100  Level Boston Center
Sat 10:27:14 AM 42.5081 -72.0486 175° South 329 379 10,100  Level Boston Center
Sat 10:27:49 AM 42.4558 -72.0292 165° South 326 375 10,100 -63 Level Boston Center
Sat 10:28:49 AM 42.3683 -71.9933 163° South 337 388 10,000 -50 Descending Boston Center
Sat 10:29:49 AM 42.2764 -71.9603 165° South 337 388 10,000  Level Boston Center
Sat 10:30:23 AM 42.2264 -71.9439 166° South 333 383 10,000  Level Boston Center
Sat 10:31:25 AM 42.1344 -71.9139 166° South 333 383 10,000  Level Boston Center
Sat 10:32:26 AM 42.0425 -71.8753 163° South 333 383 10,000  Level Boston Center
Sat 10:33:27 AM 41.9569 -71.8314 159° South 336 387 10,000 -738 Level Boston Center
Sat 10:34:28 AM 41.9189 -71.7231 115° Southeast 303 349 8,500 -1,636 Descending Boston Center
Sat 10:35:28 AM 41.8828 -71.6314 118° Southeast 282 325 6,700 -1,785 Descending Boston Center
Sat 10:36:29 AM 41.8569 -71.5397 111° Southeast 268 308 4,900 -1,377 Descending Boston Center
Sat 10:37:30 AM 41.8250 -71.4622 119° Southeast 223 257 3,900 -1,279 Descending Boston Center
Sat 10:38:31 AM 41.7997 -71.4125 124° Southeast 167 192 2,300 -1,426 Descending Boston Center
Sat 10:39:32 AM 41.7619 -71.3992 165° South 130 150 1,000 -1,082 Descending Boston Center
Sat 10:40:33 AM 41.7331 -71.4219 210° Southwest 112 129 100 -885 Descending Boston Center
Sat 10:44:00 AM 41.7167 -71.4167 North  Level FlightAware Approximate

Login

Don't have an account? Register now (free) for customized features, flight alerts, and more!